Stoughton, Canada
Current Conditions -  °F | °C
As of 2:00 AM on Saturday 25 Oct 2014 (Local Time) from CYEN Reporting Station
Clear Clear  
Wind Chill: 26°   Ceiling: Unl
Heat Index: 34°   Visibility: 15mi
Dew Point: 28°   Wind: 9mph
Humidity: 81%   Direction: 260°W
Pressure: 30.06"   Gusts: NA
Location:  49.68°N, 103.02°W
Report Text: CYEN 250800Z 26008KT 15SM SKC 01/M02 A3006 RMK SLP195
Loading
Personal Weather Stations






























Interactive Weather Map
Tropical Storm Tracking
New forecast layout! Learn more

10-Day Weather Forecast

Advertisements
Track Severe Weather on mobile